createdAt,value
2022-11-26T00:01:17.606Z,22.20
2022-11-26T00:03:45.770Z,23.17
2022-11-26T00:06:32.181Z,22.55
2022-11-26T00:09:00.755Z,24.25
2022-11-26T00:11:28.115Z,22.90
2022-11-26T00:13:55.450Z,24.63
2022-11-26T00:16:23.327Z,21.73
2022-11-26T00:18:50.740Z,21.80
2022-11-26T00:21:22.438Z,23.12
2022-11-26T00:23:50.780Z,21.17
2022-11-26T00:26:21.313Z,20.73
2022-11-26T00:28:51.578Z,22.20
2022-11-26T00:31:19.346Z,21.40
2022-11-26T00:33:47.197Z,20.95
2022-11-26T00:36:21.829Z,20.25
2022-11-26T00:38:55.142Z,21.55
2022-11-26T00:41:24.920Z,21.60
2022-11-26T00:43:52.558Z,22.40
2022-11-26T00:46:21.111Z,21.67
2022-11-26T00:48:48.759Z,22.20
2022-11-26T00:51:25.111Z,19.75
2022-11-26T00:53:56.701Z,22.87
2022-11-26T00:56:24.260Z,24.63
2022-11-26T00:58:51.574Z,22.75
2022-11-26T01:01:23.754Z,22.37
2022-11-26T01:06:26.550Z,20.55
2022-11-26T01:08:54.157Z,21.17
2022-11-26T01:11:22.736Z,22.42
2022-11-26T01:13:51.370Z,23.70
2022-11-26T01:16:30.944Z,21.73
2022-11-26T01:18:59.600Z,23.85
2022-11-26T01:21:30.380Z,20.58
2022-11-26T01:23:57.730Z,21.98
2022-11-26T01:26:31.883Z,24.40
2022-11-26T01:28:59.441Z,22.77
2022-11-26T01:31:28.450Z,22.77
2022-11-26T01:33:56.245Z,22.35
2022-11-26T01:36:33.885Z,23.15
2022-11-26T01:39:22.495Z,23.45
2022-11-26T01:41:58.983Z,22.70
2022-11-26T01:44:29.159Z,23.65
2022-11-26T01:46:57.706Z,24.10
2022-11-26T01:49:28.273Z,23.70
2022-11-26T01:52:34.142Z,23.92
2022-11-26T01:55:01.734Z,22.67
2022-11-26T01:57:29.913Z,23.15
2022-11-26T02:00:01.474Z,22.08
2022-11-26T02:02:29.155Z,22.70
2022-11-26T02:05:09.504Z,22.95
2022-11-26T02:07:37.040Z,23.35
2022-11-26T02:10:04.963Z,22.83
2022-11-26T02:12:32.513Z,20.92
2022-11-26T02:14:59.874Z,24.00
2022-11-26T02:17:41.874Z,22.83
2022-11-26T02:20:24.396Z,22.30
2022-11-26T02:22:54.876Z,22.90
2022-11-26T02:25:40.426Z,22.48
2022-11-26T02:28:49.750Z,22.25
2022-11-26T02:31:47.971Z,22.62
2022-11-26T02:34:23.571Z,21.40
2022-11-26T02:36:57.749Z,22.13
2022-11-26T02:39:27.145Z,22.27
2022-11-26T02:42:00.073Z,23.45
2022-11-26T02:44:46.299Z,22.45
2022-11-26T02:47:16.751Z,23.52
2022-11-26T02:49:46.312Z,22.90
2022-11-26T02:52:14.241Z,26.12
2022-11-26T02:54:42.745Z,22.33
2022-11-26T02:57:14.054Z,22.45
2022-11-26T02:59:42.154Z,22.37
2022-11-26T03:02:14.856Z,24.27
2022-11-26T03:07:13.044Z,22.70
2022-11-26T03:09:56.245Z,22.92
2022-11-26T03:12:24.283Z,22.02
2022-11-26T03:14:51.955Z,22.67
2022-11-26T03:17:19.328Z,24.02
2022-11-26T03:19:47.396Z,26.30
2022-11-26T03:22:15.658Z,24.15
2022-11-26T03:24:43.095Z,26.33
2022-11-26T03:27:10.860Z,23.77
2022-11-26T03:29:38.285Z,22.48
2022-11-26T03:32:05.811Z,24.87
2022-11-26T03:34:33.470Z,24.45
2022-11-26T03:37:00.760Z,22.27
2022-11-26T03:39:28.106Z,22.52
2022-11-26T03:41:55.756Z,22.42
2022-11-26T03:44:23.069Z,23.98
2022-11-26T03:46:50.443Z,24.30
2022-11-26T03:49:18.033Z,22.85
2022-11-26T03:51:45.381Z,24.77
2022-11-26T03:54:12.675Z,22.67
2022-11-26T03:56:40.258Z,24.65
2022-11-26T03:59:07.680Z,24.45
2022-11-26T04:01:35.292Z,24.25
2022-11-26T04:04:03.058Z,25.15
2022-11-26T04:06:30.430Z,22.85
2022-11-26T04:08:57.766Z,25.23
2022-11-26T04:11:25.395Z,22.90
2022-11-26T04:13:52.750Z,22.62
2022-11-26T04:16:20.936Z,22.20
2022-11-26T04:18:48.514Z,25.62
2022-11-26T04:21:15.863Z,23.38
2022-11-26T04:23:43.211Z,23.30
2022-11-26T04:26:10.795Z,23.83
2022-11-26T04:28:38.106Z,25.12
2022-11-26T04:31:05.728Z,24.55
2022-11-26T04:33:33.403Z,26.00
2022-11-26T04:36:01.135Z,24.42
2022-11-26T04:38:28.422Z,25.85
2022-11-26T04:40:56.095Z,25.62
2022-11-26T04:43:23.402Z,26.10
2022-11-26T04:45:50.787Z,26.58
2022-11-26T04:48:18.731Z,29.23
2022-11-26T04:50:46.146Z,28.98
2022-11-26T04:53:13.487Z,27.62
2022-11-26T04:55:41.079Z,28.85
2022-11-26T04:58:08.392Z,25.98
2022-11-26T05:00:35.814Z,25.35
2022-11-26T05:03:03.493Z,25.62
2022-11-26T05:05:30.878Z,25.48
2022-11-26T05:07:58.230Z,22.55
2022-11-26T05:10:25.883Z,23.25
2022-11-26T05:12:53.218Z,24.77
2022-11-26T05:15:20.564Z,23.65
2022-11-26T05:17:48.256Z,25.77
2022-11-26T05:20:15.622Z,26.75
2022-11-26T05:22:43.194Z,24.77
2022-11-26T05:25:10.794Z,24.15
2022-11-26T05:27:38.123Z,24.20
2022-11-26T05:30:07.343Z,27.37
2022-11-26T05:32:34.999Z,26.55
2022-11-26T05:35:02.338Z,28.67
2022-11-26T05:37:29.643Z,23.90
2022-11-26T05:39:57.185Z,24.27
2022-11-26T05:42:24.502Z,23.90
2022-11-26T05:44:51.982Z,24.92
2022-11-26T05:47:19.600Z,24.30
2022-11-26T05:49:46.898Z,24.42
2022-11-26T05:52:14.261Z,23.33
2022-11-26T05:54:41.947Z,23.80
2022-11-26T05:57:10.763Z,23.27
2022-11-26T05:59:38.066Z,22.33
2022-11-26T06:02:05.889Z,23.38
2022-11-26T06:04:33.612Z,23.33
2022-11-26T06:07:00.882Z,23.25
2022-11-26T06:09:28.186Z,23.70
2022-11-26T06:11:55.795Z,24.42
2022-11-26T06:14:23.141Z,23.58
2022-11-26T06:16:50.543Z,22.50
2022-11-26T06:19:18.265Z,22.85
2022-11-26T06:21:45.873Z,20.00
2022-11-26T06:24:13.148Z,21.70
2022-11-26T06:26:40.783Z,22.05
2022-11-26T06:29:08.115Z,22.27
2022-11-26T06:31:35.515Z,22.17
2022-11-26T06:34:03.218Z,22.25
2022-11-26T06:36:30.565Z,21.83
2022-11-26T06:38:57.877Z,21.35
2022-11-26T06:41:25.454Z,21.98
2022-11-26T06:43:52.762Z,23.52
2022-11-26T06:46:20.191Z,21.10
2022-11-26T06:48:47.857Z,20.83
2022-11-26T06:51:16.264Z,20.92
2022-11-26T06:53:43.651Z,24.40
2022-11-26T06:56:18.019Z,23.95
2022-11-26T06:58:50.193Z,21.20
2022-11-26T07:01:21.245Z,22.95
2022-11-26T07:03:48.642Z,23.58
2022-11-26T07:06:21.061Z,22.15
2022-11-26T07:08:49.286Z,21.05
2022-11-26T07:11:17.553Z,20.60
2022-11-26T07:13:44.886Z,19.98
2022-11-26T07:16:12.754Z,19.55
2022-11-26T07:18:40.225Z,21.35
2022-11-26T07:21:09.891Z,19.45
2022-11-26T07:23:38.482Z,17.77
2022-11-26T07:26:07.383Z,21.35
2022-11-26T07:28:35.483Z,19.90
2022-11-26T07:31:05.124Z,19.40
2022-11-26T07:33:32.701Z,21.90
2022-11-26T07:36:01.389Z,24.35
2022-11-26T07:38:29.265Z,23.33
2022-11-26T07:41:06.437Z,21.50
2022-11-26T07:43:34.994Z,21.42
2022-11-26T07:46:04.343Z,21.62
2022-11-26T07:48:32.402Z,20.62
2022-11-26T07:51:01.149Z,20.25
2022-11-26T07:53:29.816Z,22.83
2022-11-26T07:55:57.431Z,22.58
2022-11-26T07:58:25.274Z,21.12
2022-11-26T08:00:54.810Z,21.15
2022-11-26T08:03:22.734Z,20.62
2022-11-26T08:05:50.109Z,20.67
2022-11-26T08:08:17.522Z,19.55
2022-11-26T08:10:45.155Z,20.50
2022-11-26T08:13:12.487Z,21.12
2022-11-26T08:15:39.790Z,21.42
2022-11-26T08:18:07.401Z,20.40
2022-11-26T08:20:34.721Z,17.87
2022-11-26T08:23:02.058Z,17.45
2022-11-26T08:25:29.678Z,18.42
2022-11-26T08:27:57.282Z,21.10
2022-11-26T08:30:24.618Z,18.45
2022-11-26T08:32:52.197Z,20.50
2022-11-26T08:35:19.528Z,18.95
2022-11-26T08:37:46.822Z,20.58
2022-11-26T08:40:14.583Z,17.30
2022-11-26T08:42:41.925Z,17.77
2022-11-26T08:45:09.497Z,18.23
2022-11-26T08:47:37.351Z,16.80
2022-11-26T08:50:05.586Z,18.40
2022-11-26T08:52:32.885Z,17.87
2022-11-26T08:55:00.489Z,18.25
2022-11-26T08:57:27.921Z,18.33
2022-11-26T08:59:56.068Z,18.25
2022-11-26T09:02:23.690Z,18.05
2022-11-26T09:04:51.072Z,18.50
2022-11-26T09:07:18.520Z,18.33
2022-11-26T09:09:46.242Z,18.12
2022-11-26T09:12:13.551Z,18.00
2022-11-26T09:14:41.858Z,18.75
2022-11-26T09:17:11.465Z,17.33
2022-11-26T09:19:39.316Z,18.30
2022-11-26T09:22:06.635Z,19.02
2022-11-26T09:24:34.343Z,16.65
2022-11-26T09:27:07.479Z,17.92
2022-11-26T09:29:36.086Z,17.98
2022-11-26T09:34:52.589Z,17.98
2022-11-26T09:37:19.939Z,18.42
2022-11-26T09:39:47.370Z,18.27
2022-11-26T09:42:26.623Z,18.30
2022-11-26T09:45:02.956Z,19.42
2022-11-26T09:47:42.013Z,17.70
2022-11-26T09:50:15.318Z,18.02
2022-11-26T09:53:04.389Z,18.00
2022-11-26T09:55:32.579Z,18.25
2022-11-26T09:58:16.357Z,17.83
2022-11-26T10:00:49.392Z,17.05
2022-11-26T10:03:18.328Z,17.45
2022-11-26T10:06:14.508Z,18.37
2022-11-26T10:08:51.413Z,16.52
2022-11-26T10:11:26.012Z,16.73
2022-11-26T10:14:15.573Z,17.58
2022-11-26T10:16:55.218Z,17.77
2022-11-26T10:19:25.154Z,17.37
2022-11-26T10:21:59.821Z,16.83
2022-11-26T10:24:37.061Z,16.80
2022-11-26T10:27:12.606Z,16.40
2022-11-26T10:29:42.502Z,17.60
2022-11-26T10:32:16.427Z,17.10
2022-11-26T10:34:52.492Z,18.48
2022-11-26T10:37:22.195Z,17.08
2022-11-26T10:39:52.917Z,17.77
2022-11-26T10:42:24.486Z,17.40
2022-11-26T10:44:53.293Z,17.45
2022-11-26T10:47:28.887Z,17.85
2022-11-26T10:53:21.289Z,18.55
2022-11-26T10:55:49.068Z,17.12
2022-11-26T10:58:19.810Z,18.27
2022-11-26T11:00:49.943Z,18.17
2022-11-26T11:03:59.342Z,17.15
2022-11-26T11:06:19.742Z,18.70
2022-11-26T11:08:49.468Z,18.00
2022-11-26T11:11:25.412Z,18.10
2022-11-26T11:13:53.554Z,21.15
2022-11-26T11:16:27.671Z,19.15
2022-11-26T11:19:00.904Z,17.80
2022-11-26T11:21:30.902Z,19.50
2022-11-26T11:24:17.246Z,18.65
2022-11-26T11:26:53.503Z,18.67
2022-11-26T11:29:39.462Z,19.70
2022-11-26T11:32:35.676Z,19.30
2022-11-26T11:35:26.151Z,19.87
2022-11-26T11:37:55.250Z,21.08
2022-11-26T11:40:27.396Z,20.90
2022-11-26T11:43:00.196Z,21.65
2022-11-26T11:45:34.897Z,22.95
2022-11-26T11:48:22.133Z,23.33
2022-11-26T11:50:57.017Z,22.15
2022-11-26T11:53:27.211Z,22.73
2022-11-26T11:56:27.259Z,22.77
2022-11-26T11:59:15.775Z,21.87
2022-11-26T12:01:55.243Z,22.77
2022-11-26T12:04:37.791Z,20.17
2022-11-26T12:07:34.629Z,21.80
2022-11-26T12:10:16.845Z,20.25
2022-11-26T12:12:50.831Z,20.75
2022-11-26T12:15:25.437Z,21.12
2022-11-26T12:18:14.123Z,22.95
2022-11-26T12:20:47.824Z,21.90
2022-11-26T12:23:33.378Z,20.48
2022-11-26T12:26:19.889Z,19.42
2022-11-26T12:29:02.270Z,21.10
2022-11-26T12:34:08.717Z,18.70
2022-11-26T12:36:45.776Z,19.98
2022-11-26T12:39:20.497Z,20.15
2022-11-26T12:41:58.878Z,19.55
2022-11-26T12:44:34.639Z,19.00
2022-11-26T12:47:14.510Z,20.58
2022-11-26T12:50:02.090Z,20.02
2022-11-26T12:52:58.961Z,20.58
2022-11-26T12:55:33.313Z,20.05
2022-11-26T12:58:17.348Z,20.10
2022-11-26T13:00:44.754Z,21.12
2022-11-26T13:03:18.323Z,20.67
2022-11-26T13:06:39.423Z,20.23
2022-11-26T13:09:32.474Z,20.35
2022-11-26T13:12:14.175Z,21.17
2022-11-26T13:14:56.705Z,21.17
2022-11-26T13:17:43.087Z,21.40
2022-11-26T13:20:42.109Z,21.50
2022-11-26T13:23:28.390Z,21.87
2022-11-26T13:26:06.195Z,20.23
2022-11-26T13:28:59.738Z,19.95
2022-11-26T13:31:46.161Z,20.08
2022-11-26T13:34:38.916Z,21.37
2022-11-26T13:37:25.565Z,20.95
2022-11-26T13:40:05.453Z,20.45
2022-11-26T13:43:04.021Z,21.83
2022-11-26T13:45:50.061Z,20.92
2022-11-26T13:48:36.535Z,21.52
2022-11-26T13:51:13.754Z,21.08
2022-11-26T13:53:47.490Z,22.13
2022-11-26T13:56:16.154Z,24.10
2022-11-26T13:58:48.757Z,21.58
2022-11-26T14:03:57.701Z,23.33
2022-11-26T14:06:27.981Z,24.95
2022-11-26T14:08:56.073Z,24.35
2022-11-26T14:11:45.843Z,22.75
2022-11-26T14:14:25.221Z,21.98
2022-11-26T14:17:11.667Z,21.33
2022-11-26T14:19:45.214Z,21.67
2022-11-26T14:22:21.891Z,22.45
2022-11-26T14:24:51.917Z,22.50
2022-11-26T14:27:21.877Z,22.87
2022-11-26T14:30:15.401Z,22.08
2022-11-26T14:32:59.825Z,22.60
2022-11-26T14:35:36.036Z,52.67
2022-11-26T14:38:06.188Z,41.90
2022-11-26T14:40:38.210Z,26.20
2022-11-26T14:43:06.994Z,27.77
2022-11-26T14:45:34.622Z,25.95
2022-11-26T14:48:03.910Z,26.98
2022-11-26T14:50:33.443Z,24.85
2022-11-26T14:53:03.755Z,27.55
2022-11-26T14:55:31.885Z,138.27
2022-11-26T14:57:59.303Z,76.75
2022-11-26T15:00:29.449Z,58.08
2022-11-26T15:02:57.216Z,121.82
2022-11-26T15:05:27.371Z,53.72
2022-11-26T15:07:59.580Z,53.10
2022-11-26T15:12:56.430Z,47.35
2022-11-26T15:15:24.526Z,38.13
2022-11-26T15:17:55.096Z,29.73
2022-11-26T15:20:23.311Z,38.45
2022-11-26T15:22:52.314Z,33.95
2022-11-26T15:25:28.331Z,40.45
2022-11-26T15:27:55.917Z,36.50
2022-11-26T15:30:25.551Z,32.47
2022-11-26T15:33:04.320Z,28.23
2022-11-26T15:35:33.276Z,28.65
2022-11-26T15:38:00.676Z,27.55
2022-11-26T15:40:42.606Z,26.83
2022-11-26T15:43:23.439Z,26.70
2022-11-26T15:45:52.139Z,24.42
2022-11-26T15:48:28.092Z,24.73
2022-11-26T15:51:13.257Z,26.75
2022-11-26T15:53:45.857Z,26.42
2022-11-26T15:56:22.020Z,33.55
2022-11-26T15:58:53.112Z,47.33
2022-11-26T16:01:30.420Z,43.47
2022-11-26T16:04:04.320Z,32.17
2022-11-26T16:06:36.133Z,29.20
2022-11-26T16:09:12.597Z,28.48
2022-11-26T16:11:56.868Z,28.60
2022-11-26T16:14:39.897Z,29.48
2022-11-26T16:17:17.167Z,28.93
2022-11-26T16:19:51.057Z,31.05
2022-11-26T16:22:21.682Z,32.00
2022-11-26T16:25:07.529Z,31.67
2022-11-26T16:27:34.888Z,32.22
2022-11-26T16:30:07.555Z,32.95
2022-11-26T16:35:17.432Z,33.25
2022-11-26T16:37:49.593Z,33.05
2022-11-26T16:40:19.165Z,36.97
2022-11-26T16:42:46.920Z,33.85
2022-11-26T16:45:14.790Z,30.25
2022-11-26T16:47:45.040Z,29.70
2022-11-26T16:50:24.361Z,31.25
2022-11-26T16:52:53.041Z,34.17
2022-11-26T16:55:28.155Z,30.77
2022-11-26T16:57:58.422Z,32.15
2022-11-26T17:00:27.083Z,31.75
2022-11-26T17:02:54.806Z,26.10
2022-11-26T17:05:22.991Z,30.83
2022-11-26T17:07:54.919Z,29.02
2022-11-26T17:10:28.513Z,26.70
2022-11-26T17:12:56.455Z,28.67
2022-11-26T17:15:24.131Z,28.58
2022-11-26T17:18:02.218Z,27.48
2022-11-26T17:20:29.774Z,26.67
2022-11-26T17:22:57.070Z,26.20
2022-11-26T17:25:24.440Z,27.90
2022-11-26T17:27:51.997Z,27.58
2022-11-26T17:30:21.586Z,33.53
2022-11-26T17:32:49.534Z,38.88
2022-11-26T17:35:17.650Z,39.50
2022-11-26T17:37:45.338Z,29.15
2022-11-26T17:40:21.350Z,26.08
2022-11-26T17:42:49.832Z,27.87
2022-11-26T17:45:18.136Z,35.65
2022-11-26T17:47:45.915Z,35.25
2022-11-26T17:50:24.636Z,35.45
2022-11-26T17:52:53.107Z,32.33
2022-11-26T17:55:22.738Z,30.52
2022-11-26T17:57:50.328Z,29.75
2022-11-26T18:00:25.708Z,28.58
2022-11-26T18:02:53.397Z,27.75
2022-11-26T18:05:20.859Z,29.33
2022-11-26T18:07:49.846Z,29.87
2022-11-26T18:10:19.790Z,27.85
2022-11-26T18:12:47.783Z,30.05
2022-11-26T18:15:26.165Z,31.65
2022-11-26T18:17:55.569Z,29.67
2022-11-26T18:20:26.003Z,28.25
2022-11-26T18:22:55.152Z,27.00
2022-11-26T18:25:22.807Z,25.42
2022-11-26T18:27:50.238Z,25.48
2022-11-26T18:30:18.138Z,24.92
2022-11-26T18:32:46.125Z,25.90
2022-11-26T18:35:13.443Z,26.25
2022-11-26T18:37:41.334Z,24.55
2022-11-26T18:40:12.307Z,25.83
2022-11-26T18:42:39.682Z,26.80
2022-11-26T18:45:09.226Z,27.77
2022-11-26T18:47:37.531Z,30.98
2022-11-26T18:50:05.756Z,27.50
2022-11-26T18:52:33.709Z,31.48
2022-11-26T18:55:04.595Z,32.75
2022-11-26T18:57:32.229Z,31.25
2022-11-26T18:59:59.833Z,29.65
2022-11-26T19:02:27.209Z,26.98
2022-11-26T19:04:54.617Z,25.58
2022-11-26T19:07:22.294Z,25.20
2022-11-26T19:09:49.771Z,25.05
2022-11-26T19:12:17.058Z,28.58
2022-11-26T19:14:44.664Z,38.22
2022-11-26T19:17:12.412Z,38.10
2022-11-26T19:19:40.102Z,47.03
2022-11-26T19:22:07.831Z,45.85
2022-11-26T19:24:35.119Z,42.55
2022-11-26T19:27:02.374Z,33.20
2022-11-26T19:29:29.903Z,30.73
2022-11-26T19:31:57.248Z,29.52
2022-11-26T19:34:24.543Z,26.70
2022-11-26T19:36:56.554Z,27.08
2022-11-26T19:39:23.930Z,29.33
2022-11-26T19:41:51.710Z,29.55
2022-11-26T19:44:19.059Z,26.65
2022-11-26T19:46:48.094Z,28.83
2022-11-26T19:49:15.746Z,28.33
2022-11-26T19:51:43.423Z,28.73
2022-11-26T19:54:10.832Z,30.62
2022-11-26T19:56:38.509Z,28.83
2022-11-26T19:59:05.898Z,26.73
2022-11-26T20:01:34.267Z,24.92
2022-11-26T20:04:04.631Z,24.83
2022-11-26T20:06:33.744Z,24.10
2022-11-26T20:09:01.550Z,23.70
2022-11-26T20:11:29.304Z,24.17
2022-11-26T20:13:57.483Z,23.60
2022-11-26T20:16:29.336Z,23.15
2022-11-26T20:18:58.185Z,22.65
2022-11-26T20:21:27.758Z,23.73
2022-11-26T20:23:57.539Z,22.37
2022-11-26T20:26:33.763Z,22.35
2022-11-26T20:29:04.552Z,22.30
2022-11-26T20:31:32.770Z,22.08
2022-11-26T20:34:04.042Z,22.42
2022-11-26T20:36:31.929Z,21.67
2022-11-26T20:39:01.492Z,23.08
2022-11-26T20:41:29.717Z,22.23
2022-11-26T20:43:59.390Z,22.08
2022-11-26T20:46:28.083Z,23.17
2022-11-26T20:48:56.373Z,21.73
2022-11-26T20:51:24.722Z,22.10
2022-11-26T20:53:52.594Z,23.25
2022-11-26T20:56:21.449Z,22.75
2022-11-26T20:58:50.565Z,22.75
2022-11-26T21:01:24.860Z,22.17
2022-11-26T21:03:53.407Z,21.83
2022-11-26T21:06:29.070Z,22.40
2022-11-26T21:08:59.697Z,22.08
2022-11-26T21:11:27.253Z,21.48
2022-11-26T21:13:54.695Z,23.48
2022-11-26T21:16:23.351Z,23.05
2022-11-26T21:18:54.115Z,22.73
2022-11-26T21:21:22.724Z,23.58
2022-11-26T21:23:50.113Z,22.60
2022-11-26T21:26:20.658Z,22.92
2022-11-26T21:28:53.799Z,24.52
2022-11-26T21:31:21.610Z,23.65
2022-11-26T21:34:00.927Z,24.15
2022-11-26T21:36:29.849Z,21.83
2022-11-26T21:38:57.687Z,21.37
2022-11-26T21:41:25.471Z,20.33
2022-11-26T21:43:52.880Z,20.12
2022-11-26T21:46:24.672Z,20.33
2022-11-26T21:48:53.441Z,19.90
2022-11-26T21:51:21.941Z,19.45
2022-11-26T21:53:50.036Z,19.42
2022-11-26T21:56:25.337Z,18.75
2022-11-26T21:58:53.185Z,18.73
2022-11-26T22:01:23.414Z,18.90
2022-11-26T22:03:52.850Z,19.83
2022-11-26T22:06:21.724Z,20.92
2022-11-26T22:08:49.639Z,19.05
2022-11-26T22:11:20.484Z,19.17
2022-11-26T22:13:47.843Z,19.62
2022-11-26T22:16:17.051Z,21.08
2022-11-26T22:18:45.555Z,19.30
2022-11-26T22:21:17.110Z,20.00
2022-11-26T22:23:45.494Z,21.40
2022-11-26T22:26:13.584Z,20.00
2022-11-26T22:28:41.231Z,23.95
2022-11-26T22:31:14.359Z,25.48
2022-11-26T22:33:41.760Z,22.67
2022-11-26T22:36:09.391Z,18.48
2022-11-26T22:38:37.886Z,17.83
2022-11-26T22:41:07.629Z,16.33
2022-11-26T22:43:35.542Z,16.45
2022-11-26T22:46:07.861Z,16.67
2022-11-26T22:48:35.793Z,16.17
2022-11-26T22:51:03.420Z,16.70
2022-11-26T22:53:33.214Z,17.37
2022-11-26T22:56:02.911Z,16.20
2022-11-26T22:58:31.163Z,16.00
2022-11-26T23:01:04.393Z,16.25
2022-11-26T23:03:34.189Z,16.17
2022-11-26T23:06:08.571Z,16.00
2022-11-26T23:08:36.926Z,16.30
2022-11-26T23:11:25.371Z,15.65
2022-11-26T23:13:53.486Z,16.00
2022-11-26T23:16:23.149Z,17.00
2022-11-26T23:18:51.421Z,16.37
2022-11-26T23:21:27.591Z,16.02
2022-11-26T23:23:55.169Z,14.63
2022-11-26T23:26:27.399Z,15.70
2022-11-26T23:28:59.172Z,15.45
2022-11-26T23:31:28.896Z,15.85
2022-11-26T23:33:56.506Z,15.63
2022-11-26T23:36:24.576Z,14.85
2022-11-26T23:38:52.617Z,14.95
2022-11-26T23:41:19.965Z,14.75
2022-11-26T23:43:47.603Z,13.77
2022-11-26T23:46:26.907Z,14.87
2022-11-26T23:48:54.771Z,14.77
2022-11-26T23:51:29.385Z,14.25
2022-11-26T23:53:56.714Z,14.43
2022-11-26T23:56:27.622Z,15.63
2022-11-26T23:58:59.072Z,16.02
